EIKY/KIR METAR and TAF weather

Enter ICAO airport designator
Station Type Date Time Source
EIKY METAR 2022/11/30 10:30 UTC NOAA

EIKY 301030Z VRB02KT 9999 BKN026 13/11 Q1018


Station Type Date Time Source
EIKY Decoded METAR 2022/11/30 10:30 UTC NOAA

Station name not available
Nov 30, 2022 - 05:30 AM EST / 2022.11.30 1030 UTC
Wind: Variable at 2 MPH (2 KT):0
Visibility: greater than 7 mile(s):0
Sky conditions: mostly cloudy
Temperature: 55 F (13 C)
Dew Point: 51 F (11 C)
Relative Humidity: 87%
Pressure (altimeter): 30.06 in. Hg (1018 hPa)
ob: EIKY 301030Z VRB02KT 9999 BKN026 13/11 Q1018
cycle: 10

Station Type Date Time Source
EIKY TAF UTC NOAA

Error!

Example: see airport list